METAR Analyzer

一覧表示

Hello, Guest. (Login)

RJCC/CTS  -  札幌/新千歳

観測日時
2021-08-05 01:30 (UTC) (20分前)
気温
30
露点
25
湿数
5
相対湿度
74.6%
QNH
1006.4hPa
推定現地気圧
1003.4hPa
推定海面気圧
1006.2hPa
体感温度
25.3
(無風時)
28.7
HI
36.2
気温前日比
-1
体感温度前日比
-1.4
HI前日比
-0.3
水平視程
>10000m
鉛直視程
データなし
雲底高度
No dense clouds
V/I
VMC (VFR)
RVR
No RVR data
卓越風
9kt from 160°
ガスト
No gust
降水
報告なし
その他の天気
報告なし
少しの(1/8) 層雲 @ 1000ft AGL / 散在する(3/8) 高積雲 @ 8000ft AGL

RJCC 050130Z 16009KT 9999 FEW010 SCT080 30/25 Q1006 RMK 1ST010 3AC080 A2972

RJTT/HND  -  東京/羽田

観測日時
2021-08-05 01:30 (UTC) (20分前)
気温
32
露点
25
湿数
7
相対湿度
66.6%
QNH
1008.8hPa
推定現地気圧
1008.1hPa
推定海面気圧
1008.8hPa
体感温度
27.4
(無風時)
29.6
HI
39.2
気温前日比
±0
体感温度前日比
+0.1
HI前日比
-1.5
水平視程
>10000m
鉛直視程
データなし
雲底高度
No dense clouds
V/I
VMC (VFR)
RVR
No RVR data
卓越風
7kt from 90°
ガスト
No gust
降水
報告なし
その他の天気
報告なし
少しの(1/8) 積雲 @ 2000ft AGL

RJTT 050130Z 09007KT 9999 FEW020 32/25 Q1008 NOSIG RMK 1CU020 A2979

RJAA/NRT  -  東京/成田

観測日時
2021-08-05 01:30 (UTC) (20分前)
気温
30
露点
24
湿数
6
相対湿度
70.3%
QNH
1008.8hPa
推定現地気圧
1007.5hPa
推定海面気圧
1008.7hPa
体感温度
25.3
(無風時)
28.3
HI
35.1
気温前日比
-1
体感温度前日比
-1.5
HI前日比
-2.6
水平視程
>10000m
鉛直視程
データなし
雲底高度
No dense clouds
V/I
VMC (VFR)
RVR
No RVR data
卓越風
7kt from 130° (80° ~ 170°)
ガスト
No gust
降水
報告なし
その他の天気
報告なし
少しの(2/8) 積雲 @ 2500ft AGL

RJAA 050130Z 13007KT 080V170 9999 FEW025 30/24 Q1009 NOSIG RMK 2CU025 A2979

RJGG/NGO  -  名古屋/中部

観測日時
2021-08-05 01:30 (UTC) (20分前)
気温
30
露点
25
湿数
5
相対湿度
74.6%
QNH
1007.5hPa
推定現地気圧
1007.0hPa
推定海面気圧
1007.5hPa
体感温度
25.4
(無風時)
28.7
HI
36.2
気温前日比
+1
体感温度前日比
+0.6
HI前日比
+1.7
水平視程
>10000m
鉛直視程
データなし
雲底高度
No dense clouds
V/I
VMC (VFR)
RVR
No RVR data
卓越風
8kt from 220°
ガスト
No gust
降水
報告なし
その他の天気
報告なし
少しの(1/8) 積雲 @ 2500ft AGL

RJGG 050130Z 22008KT 9999 FEW025 30/25 Q1007 NOSIG RMK 1CU025 A2975

RJOO/ITM  -  大阪/伊丹

観測日時
2021-08-05 01:39 (UTC) (11分前)
気温
35
露点
26
湿数
9
相対湿度
59.8%
QNH
1006.8hPa
推定現地気圧
1005.4hPa
推定海面気圧
1006.7hPa
体感温度
30.7
(無風時)
31.2
HI
44.9
気温前日比
+1
体感温度前日比
+0.8
HI前日比
+1.3
水平視程
>10000m
鉛直視程
データなし
雲底高度
No dense clouds
V/I
VMC (VFR)
RVR
No RVR data
卓越風
2kt from VRB
ガスト
No gust
降水
報告なし
その他の天気
報告なし
少しの(1/8) 積雲 @ 2500ft AGL

RJOO 050139Z VRB02KT 9999 FEW025 35/26 Q1006 RMK 1CU025 A2973

RJBB/KIX  -  大阪/関西

観測日時
2021-08-05 01:30 (UTC) (20分前)
気温
28
露点
26
湿数
2
相対湿度
88.9%
QNH
1007hPa
推定現地気圧
1006.4hPa
推定海面気圧
1007.0hPa
体感温度
24.2
(無風時)
28.1
HI
33.8
気温前日比
-1
体感温度前日比
-0.6
HI前日比
-0.7
水平視程
>10000m
鉛直視程
データなし
雲底高度
No dense clouds
V/I
VMC (VFR)
RVR
No RVR data
卓越風
6kt from 310°
ガスト
No gust
降水
報告なし
その他の天気
報告なし
少しの雲 @ 2000ft AGL

RJBB 050130Z 31006KT 9999 FEW020 28/26 Q1007 NOSIG

RJFF/FUK  -  福岡

観測日時
2021-08-05 01:30 (UTC) (20分前)
気温
32
露点
23
湿数
9
相対湿度
59.1%
QNH
1006.1hPa
推定現地気圧
1005.0hPa
推定海面気圧
1006.0hPa
体感温度
27.4
(無風時)
28.9
HI
36.8
気温前日比
-1
体感温度前日比
-0.5
HI前日比
-0.2
水平視程
>10000m
鉛直視程
データなし
雲底高度
No dense clouds
V/I
VMC (VFR)
RVR
No RVR data
卓越風
3kt from 350° (260° ~ 70°)
ガスト
No gust
降水
報告なし
その他の天気
報告なし
少しの(1/8) 積雲 @ 2000ft AGL

RJFF 050130Z 35003KT 260V070 9999 FEW020 32/23 Q1006 NOSIG RMK 1CU020 A2971

ROAH/OKA  -  那覇

観測日時
2021-08-05 01:30 (UTC) (20分前)
気温
27
露点
26
湿数
1
相対湿度
94.3%
QNH
996.3hPa
推定現地気圧
995.9hPa
推定海面気圧
996.2hPa
体感温度
21.8
(無風時)
27.6
HI
31.9
気温前日比
-3
体感温度前日比
-3.1
HI前日比
-5.5
水平視程
8000m
鉛直視程
データなし
雲底高度
1500ft AGL
V/I
VMC (VFR)
RVR
No RVR data
卓越風
13kt from 290°
ガスト
No gust
降水
中程度のしゅう雨性の雨
その他の天気
報告なし
散在する(3/8) 層雲 @ 600ft AGL / 隙間のある(5/8) 積雲 @ 1500ft AGL / 少しの(2/8) 積乱雲 @ 2000ft AGL

ROAH 050130Z 29013KT 8000 SHRA SCT006 BKN015 FEW020CB 27/26 Q0996 RMK 3ST006 5CU015 2CB020 A2942 CB 20KM SE MOV N P/RR

8.3msec